createdAt,value
2023-04-10T00:00:57.771Z,9.52
2023-04-10T00:03:27.794Z,6.78
2023-04-10T00:05:56.373Z,10.57
2023-04-10T00:08:26.181Z,9.02
2023-04-10T00:10:54.938Z,6.45
2023-04-10T00:13:23.534Z,6.78
2023-04-10T00:15:52.255Z,7.47
2023-04-10T00:18:22.291Z,7.28
2023-04-10T00:20:50.968Z,10.25
2023-04-10T00:23:19.574Z,5.70
2023-04-10T00:25:49.803Z,9.48
2023-04-10T00:28:18.481Z,11.60
2023-04-10T00:30:47.047Z,3.78
2023-04-10T00:33:15.967Z,7.35
2023-04-10T00:35:46.490Z,6.80
2023-04-10T00:38:15.231Z,7.32
2023-04-10T00:40:43.759Z,8.98
2023-04-10T00:43:12.665Z,5.30
2023-04-10T00:45:41.336Z,5.25
2023-04-10T00:48:10.127Z,6.90
2023-04-10T00:50:39.047Z,13.35
2023-04-10T00:53:09.098Z,11.75
2023-04-10T00:55:38.416Z,9.77
2023-04-10T00:58:08.005Z,8.38
2023-04-10T01:00:36.598Z,9.52
2023-04-10T01:03:05.627Z,12.52
2023-04-10T01:05:43.787Z,8.88
2023-04-10T01:08:25.956Z,9.55
2023-04-10T01:11:02.565Z,12.05
2023-04-10T01:13:36.904Z,9.23
2023-04-10T01:16:16.288Z,13.48
2023-04-10T01:18:50.267Z,15.70
2023-04-10T01:21:19.837Z,13.35
2023-04-10T01:24:23.217Z,16.63
2023-04-10T01:27:12.440Z,16.63
2023-04-10T01:29:48.611Z,11.43
2023-04-10T01:32:22.118Z,17.33
2023-04-10T01:34:54.216Z,13.50
2023-04-10T01:37:26.386Z,15.18
2023-04-10T01:40:01.113Z,15.38
2023-04-10T01:42:32.764Z,9.52
2023-04-10T01:45:05.091Z,10.13
2023-04-10T01:47:34.496Z,13.20
2023-04-10T01:50:03.717Z,9.93
2023-04-10T01:52:34.702Z,8.65
2023-04-10T01:55:05.099Z,8.63
2023-04-10T01:57:36.232Z,10.27
2023-04-10T02:00:07.198Z,10.93
2023-04-10T02:02:36.197Z,11.95
2023-04-10T02:05:04.899Z,11.88
2023-04-10T02:07:41.325Z,12.77
2023-04-10T02:10:15.246Z,12.23
2023-04-10T02:12:53.844Z,11.88
2023-04-10T02:15:28.385Z,9.30
2023-04-10T02:17:59.365Z,12.85
2023-04-10T02:20:28.682Z,11.13
2023-04-10T02:23:00.309Z,13.50
2023-04-10T02:25:29.115Z,12.20
2023-04-10T02:27:57.655Z,11.45
2023-04-10T02:30:27.787Z,14.27
2023-04-10T02:32:56.798Z,16.63
2023-04-10T02:35:25.937Z,17.48
2023-04-10T02:37:54.586Z,12.32
2023-04-10T02:40:23.381Z,14.10
2023-04-10T02:42:51.930Z,16.38
2023-04-10T02:45:20.600Z,13.50
2023-04-10T02:47:50.867Z,15.80
2023-04-10T02:50:19.764Z,16.20
2023-04-10T02:52:48.567Z,20.60
2023-04-10T02:55:17.395Z,14.82
2023-04-10T02:57:46.871Z,16.60
2023-04-10T03:00:16.111Z,13.40
2023-04-10T03:02:45.192Z,15.68
2023-04-10T03:05:15.642Z,19.23
2023-04-10T03:07:44.193Z,17.48
2023-04-10T03:10:13.756Z,15.90
2023-04-10T03:12:42.340Z,20.70
2023-04-10T03:15:12.093Z,18.60
2023-04-10T03:17:40.994Z,16.08
2023-04-10T03:20:11.661Z,22.25
2023-04-10T03:22:41.666Z,17.83
2023-04-10T03:25:11.015Z,23.70
2023-04-10T03:27:40.428Z,18.63
2023-04-10T03:30:10.235Z,22.40
2023-04-10T03:32:39.286Z,15.57
2023-04-10T03:35:08.729Z,15.20
2023-04-10T03:37:37.417Z,17.60
2023-04-10T03:40:11.301Z,26.13
2023-04-10T03:42:40.205Z,17.70
2023-04-10T03:45:13.619Z,15.52
2023-04-10T03:47:42.517Z,17.48
2023-04-10T03:50:11.845Z,14.90
2023-04-10T03:52:41.738Z,19.83
2023-04-10T03:55:12.495Z,18.67
2023-04-10T03:57:41.225Z,12.90
2023-04-10T04:00:11.542Z,21.90
2023-04-10T04:02:40.327Z,16.08
2023-04-10T04:05:09.758Z,19.92
2023-04-10T04:07:38.482Z,13.45
2023-04-10T04:10:08.084Z,20.35
2023-04-10T04:12:38.227Z,16.85
2023-04-10T04:15:07.516Z,21.33
2023-04-10T04:17:36.181Z,17.77
2023-04-10T04:20:05.117Z,21.08
2023-04-10T04:22:33.685Z,15.90
2023-04-10T04:25:02.490Z,19.98
2023-04-10T04:27:31.080Z,15.73
2023-04-10T04:30:01.123Z,12.25
2023-04-10T04:32:29.710Z,17.55
2023-04-10T04:34:58.248Z,20.17
2023-04-10T04:37:26.878Z,14.13
2023-04-10T04:39:56.052Z,14.38
2023-04-10T04:42:24.632Z,11.40
2023-04-10T04:44:53.890Z,16.20
2023-04-10T04:47:24.929Z,14.13
2023-04-10T04:49:53.415Z,15.68
2023-04-10T04:52:21.857Z,15.25
2023-04-10T04:54:50.444Z,20.05
2023-04-10T04:57:18.993Z,18.63
2023-04-10T04:59:47.578Z,20.58
2023-04-10T05:02:19.139Z,17.45
2023-04-10T05:04:49.258Z,17.20
2023-04-10T05:07:17.849Z,12.52
2023-04-10T05:09:46.594Z,16.00
2023-04-10T05:12:15.219Z,19.02
2023-04-10T05:14:44.838Z,18.13
2023-04-10T05:17:15.413Z,16.30
2023-04-10T05:19:43.933Z,17.77
2023-04-10T05:22:14.204Z,14.07
2023-04-10T05:24:42.872Z,22.17
2023-04-10T05:27:12.112Z,18.00
2023-04-10T05:29:40.671Z,15.80
2023-04-10T05:32:09.233Z,17.70
2023-04-10T05:34:37.591Z,17.80
2023-04-10T05:37:06.132Z,16.45
2023-04-10T05:39:36.233Z,11.80
2023-04-10T05:42:04.992Z,20.25
2023-04-10T05:44:33.561Z,13.25
2023-04-10T05:47:02.302Z,20.95
2023-04-10T05:49:30.924Z,18.75
2023-04-10T05:51:59.573Z,13.20
2023-04-10T05:54:28.186Z,13.85
2023-04-10T05:56:58.289Z,13.93
2023-04-10T05:59:26.954Z,18.20
2023-04-10T06:01:55.769Z,15.55
2023-04-10T06:04:24.454Z,14.63
2023-04-10T06:06:53.522Z,20.42
2023-04-10T06:09:22.270Z,18.63
2023-04-10T06:11:51.275Z,18.85
2023-04-10T06:14:21.431Z,20.25
2023-04-10T06:16:49.952Z,13.40
2023-04-10T06:19:18.572Z,15.50
2023-04-10T06:21:47.580Z,17.27
2023-04-10T06:24:16.541Z,19.98
2023-04-10T06:26:45.120Z,16.73
2023-04-10T06:29:13.779Z,16.95
2023-04-10T06:31:43.988Z,15.07
2023-04-10T06:34:12.472Z,18.40
2023-04-10T06:36:44.019Z,19.77
2023-04-10T06:39:12.536Z,13.60
2023-04-10T06:41:40.906Z,16.27
2023-04-10T06:44:09.581Z,14.57
2023-04-10T06:46:38.522Z,16.40
2023-04-10T06:49:08.646Z,18.27
2023-04-10T06:51:37.222Z,19.02
2023-04-10T06:54:06.050Z,16.15
2023-04-10T06:56:34.607Z,15.25
2023-04-10T06:59:03.393Z,13.85
2023-04-10T07:01:32.243Z,13.95
2023-04-10T07:04:00.808Z,14.10
2023-04-10T07:06:31.659Z,14.48
2023-04-10T07:09:00.180Z,15.25
2023-04-10T07:11:28.697Z,17.27
2023-04-10T07:13:58.880Z,11.70
2023-04-10T07:16:27.773Z,13.50
2023-04-10T07:18:56.897Z,10.00
2023-04-10T07:21:27.550Z,8.52
2023-04-10T07:23:57.747Z,13.35
2023-04-10T07:26:26.934Z,9.43
2023-04-10T07:28:55.816Z,6.80
2023-04-10T07:31:25.001Z,12.18
2023-04-10T07:33:53.771Z,11.02
2023-04-10T07:36:22.320Z,11.10
2023-04-10T07:38:51.059Z,10.52
2023-04-10T07:41:20.781Z,9.10
2023-04-10T07:43:49.580Z,6.68
2023-04-10T07:46:19.075Z,9.40
2023-04-10T07:48:49.908Z,10.40
2023-04-10T07:51:18.482Z,10.43
2023-04-10T07:53:46.919Z,8.57
2023-04-10T07:56:20.927Z,11.48
2023-04-10T07:58:51.046Z,9.95
2023-04-10T08:01:19.627Z,6.63
2023-04-10T08:03:48.584Z,9.85
2023-04-10T08:06:17.573Z,9.05
2023-04-10T08:08:46.102Z,13.50
2023-04-10T08:11:28.090Z,9.13
2023-04-10T08:13:58.632Z,9.10
2023-04-10T08:16:28.771Z,9.98
2023-04-10T08:18:59.062Z,9.95
2023-04-10T08:21:29.430Z,8.88
2023-04-10T08:23:59.593Z,9.10
2023-04-10T08:26:30.630Z,13.93
2023-04-10T08:29:01.190Z,14.95
2023-04-10T08:31:30.911Z,9.07
2023-04-10T08:34:00.146Z,7.47
2023-04-10T08:36:29.484Z,6.78
2023-04-10T08:38:58.179Z,11.63
2023-04-10T08:41:26.834Z,5.80
2023-04-10T08:43:58.645Z,5.28
2023-04-10T08:46:27.699Z,6.90
2023-04-10T08:49:03.499Z,4.40
2023-04-10T08:51:38.570Z,4.50
2023-04-10T08:54:09.543Z,4.22
2023-04-10T08:56:43.332Z,4.75
2023-04-10T08:59:13.475Z,3.53
2023-04-10T09:01:42.694Z,8.60
2023-04-10T09:04:13.565Z,4.32
2023-04-10T09:06:42.540Z,2.53
2023-04-10T09:09:11.308Z,4.07
2023-04-10T09:12:01.571Z,3.28
2023-04-10T09:14:33.529Z,3.58
2023-04-10T09:17:17.895Z,3.65
2023-04-10T09:19:47.920Z,5.18
2023-04-10T09:22:17.213Z,2.97
2023-04-10T09:24:47.709Z,5.35
2023-04-10T09:27:31.773Z,2.28
2023-04-10T09:30:11.685Z,2.90
2023-04-10T09:32:44.456Z,4.97
2023-04-10T09:35:15.290Z,2.33
2023-04-10T09:37:47.129Z,5.85
2023-04-10T09:40:24.827Z,3.78
2023-04-10T09:42:57.101Z,2.58
2023-04-10T09:45:27.419Z,4.57
2023-04-10T09:48:07.148Z,3.38
2023-04-10T09:50:40.458Z,3.30
2023-04-10T09:53:09.757Z,5.00
2023-04-10T09:55:38.910Z,2.42
2023-04-10T09:58:08.027Z,3.95
2023-04-10T10:00:42.465Z,3.70
2023-04-10T10:03:13.240Z,5.07
2023-04-10T10:05:44.070Z,3.78
2023-04-10T10:08:15.232Z,6.53
2023-04-10T10:10:48.257Z,3.20
2023-04-10T10:13:21.061Z,2.83
2023-04-10T10:16:02.575Z,4.90
2023-04-10T10:18:41.057Z,5.57
2023-04-10T10:21:10.932Z,4.78
2023-04-10T10:23:40.269Z,5.78
2023-04-10T10:26:11.517Z,3.60
2023-04-10T10:28:43.315Z,3.88
2023-04-10T10:31:14.065Z,6.35
2023-04-10T10:33:42.863Z,7.38
2023-04-10T10:36:14.158Z,5.63
2023-04-10T10:38:56.009Z,7.63
2023-04-10T10:41:30.227Z,6.75
2023-04-10T10:44:10.510Z,6.47
2023-04-10T10:46:46.401Z,2.92
2023-04-10T10:49:14.972Z,6.95
2023-04-10T10:51:48.430Z,4.47
2023-04-10T10:54:36.609Z,2.47
2023-04-10T10:57:45.691Z,2.30
2023-04-10T11:00:15.325Z,2.45
2023-04-10T11:02:45.548Z,3.00
2023-04-10T11:05:52.565Z,6.63
2023-04-10T11:08:46.278Z,4.15
2023-04-10T11:11:23.971Z,4.75
2023-04-10T11:14:21.672Z,4.90
2023-04-10T11:16:50.673Z,3.33
2023-04-10T11:19:25.437Z,4.90
2023-04-10T11:22:17.932Z,2.97
2023-04-10T11:25:02.500Z,3.75
2023-04-10T11:27:49.750Z,2.95
2023-04-10T11:30:38.058Z,6.25
2023-04-10T11:33:07.583Z,3.92
2023-04-10T11:35:38.305Z,1.02
2023-04-10T11:38:24.566Z,4.28
2023-04-10T11:41:04.686Z,2.22
2023-04-10T11:43:34.041Z,2.08
2023-04-10T11:46:08.158Z,2.65
2023-04-10T11:48:38.616Z,3.80
2023-04-10T11:51:13.212Z,5.18
2023-04-10T11:53:43.050Z,3.10
2023-04-10T11:56:22.772Z,4.85
2023-04-10T11:58:54.679Z,2.50
2023-04-10T12:01:24.640Z,3.03
2023-04-10T12:03:53.711Z,3.60
2023-04-10T12:06:24.139Z,3.95
2023-04-10T12:08:53.405Z,3.70
2023-04-10T12:11:24.023Z,3.78
2023-04-10T12:13:54.795Z,5.78
2023-04-10T12:16:24.412Z,2.88
2023-04-10T12:18:53.791Z,2.65
2023-04-10T12:21:24.344Z,4.95
2023-04-10T12:23:53.202Z,3.45
2023-04-10T12:26:23.009Z,2.08
2023-04-10T12:28:54.683Z,2.25
2023-04-10T12:31:31.018Z,2.03
2023-04-10T12:34:01.592Z,3.38
2023-04-10T12:36:34.999Z,1.67
2023-04-10T12:39:06.371Z,3.67
2023-04-10T12:41:36.895Z,3.22
2023-04-10T12:44:11.059Z,2.58
2023-04-10T12:46:41.179Z,1.83
2023-04-10T12:49:14.775Z,2.53
2023-04-10T12:51:47.355Z,2.97
2023-04-10T12:54:33.470Z,2.20
2023-04-10T12:57:02.562Z,4.45
2023-04-10T12:59:32.108Z,4.78
2023-04-10T13:02:00.986Z,1.95
2023-04-10T13:04:32.512Z,1.65
2023-04-10T13:07:02.483Z,1.85
2023-04-10T13:09:31.101Z,2.15
2023-04-10T13:11:59.925Z,3.58
2023-04-10T13:14:28.631Z,4.65
2023-04-10T13:16:57.127Z,2.88
2023-04-10T13:19:25.827Z,7.63
2023-04-10T13:21:54.524Z,4.18
2023-04-10T13:24:24.520Z,2.28
2023-04-10T13:26:53.175Z,2.83
2023-04-10T13:29:21.712Z,4.85
2023-04-10T13:31:50.452Z,1.08
2023-04-10T13:34:19.016Z,2.92
2023-04-10T13:36:48.737Z,2.13
2023-04-10T13:39:19.002Z,4.38
2023-04-10T13:41:49.082Z,3.05
2023-04-10T13:44:17.740Z,3.65
2023-04-10T13:46:46.342Z,2.30
2023-04-10T13:49:17.565Z,2.65
2023-04-10T13:51:46.779Z,2.60
2023-04-10T13:54:17.546Z,2.45
2023-04-10T13:56:46.821Z,2.90
2023-04-10T13:59:16.877Z,3.03
2023-04-10T14:01:45.610Z,3.60
2023-04-10T14:04:14.263Z,2.05
2023-04-10T14:06:42.892Z,2.95
2023-04-10T14:09:11.812Z,5.03
2023-04-10T14:11:40.427Z,3.00
2023-04-10T14:14:08.956Z,2.55
2023-04-10T14:16:39.417Z,0.30
2023-04-10T14:19:08.181Z,0.10
2023-04-10T14:21:37.729Z,0.20
2023-04-10T14:24:06.477Z,0.10
2023-04-10T14:26:35.187Z,0.13
2023-04-10T14:29:04.174Z,0.10
2023-04-10T14:31:32.904Z,0.30
2023-04-10T14:34:03.221Z,0.20
2023-04-10T14:36:32.312Z,0.10
2023-04-10T14:39:02.483Z,0.30
2023-04-10T14:41:31.877Z,27.80
2023-04-10T14:44:00.712Z,0.10
2023-04-10T14:46:29.335Z,0.10
2023-04-10T14:48:57.997Z,0.10
2023-04-10T14:51:28.206Z,0.10
2023-04-10T14:53:56.877Z,0.10
2023-04-10T14:56:26.015Z,0.17
2023-04-10T14:58:54.598Z,0.10
2023-04-10T15:01:23.409Z,0.00
2023-04-10T15:03:56.121Z,0.13
2023-04-10T15:06:28.504Z,0.10
2023-04-10T15:08:58.596Z,0.17
2023-04-10T15:11:27.297Z,0.10
2023-04-10T15:13:56.121Z,0.10
2023-04-10T15:16:25.011Z,0.93
2023-04-10T15:18:53.565Z,1.65
2023-04-10T15:21:22.121Z,0.10
2023-04-10T15:23:50.853Z,0.10
2023-04-10T15:26:27.104Z,0.10
2023-04-10T15:28:56.658Z,0.10
2023-04-10T15:31:25.497Z,0.10
2023-04-10T15:33:55.772Z,0.35
2023-04-10T15:36:24.526Z,0.10
2023-04-10T15:38:53.339Z,3.33
2023-04-10T15:41:23.099Z,3.90
2023-04-10T15:43:53.611Z,2.90
2023-04-10T15:46:22.421Z,3.88
2023-04-10T15:48:50.937Z,5.50
2023-04-10T15:51:19.239Z,4.38
2023-04-10T15:53:47.852Z,5.47
2023-04-10T15:56:16.864Z,4.63
2023-04-10T15:58:45.827Z,0.85
2023-04-10T16:01:15.933Z,3.03
2023-04-10T16:03:46.041Z,2.05
2023-04-10T16:06:15.061Z,5.32
2023-04-10T16:11:49.555Z,2.88
2023-04-10T16:14:19.561Z,2.45
2023-04-10T16:16:49.929Z,0.70
2023-04-10T16:19:19.083Z,3.10
2023-04-10T16:21:47.717Z,2.72
2023-04-10T16:24:16.474Z,2.13
2023-04-10T16:26:45.129Z,1.55
2023-04-10T16:29:13.941Z,3.08
2023-04-10T16:31:42.690Z,3.25
2023-04-10T16:34:13.980Z,5.82
2023-04-10T16:36:43.605Z,6.55
2023-04-10T16:39:12.510Z,4.30
2023-04-10T16:41:41.251Z,3.67
2023-04-10T16:44:11.009Z,3.20
2023-04-10T16:46:39.839Z,5.82
2023-04-10T16:49:08.467Z,5.65
2023-04-10T16:51:38.736Z,2.85
2023-04-10T16:54:08.295Z,3.80
2023-04-10T16:56:37.018Z,3.20
2023-04-10T16:59:05.821Z,4.20
2023-04-10T17:01:40.002Z,2.95
2023-04-10T17:04:09.633Z,2.85
2023-04-10T17:06:39.851Z,3.50
2023-04-10T17:09:10.982Z,4.63
2023-04-10T17:11:39.689Z,2.10
2023-04-10T17:14:10.588Z,4.88
2023-04-10T17:16:39.231Z,4.18
2023-04-10T17:19:07.985Z,3.92
2023-04-10T17:21:36.571Z,3.20
2023-04-10T17:24:07.042Z,4.97
2023-04-10T17:26:35.929Z,3.72
2023-04-10T17:29:04.598Z,3.75
2023-04-10T17:31:33.311Z,5.32
2023-04-10T17:34:01.897Z,2.53
2023-04-10T17:36:32.606Z,5.90
2023-04-10T17:39:02.522Z,5.07
2023-04-10T17:41:32.869Z,7.18
2023-04-10T17:44:02.942Z,7.32
2023-04-10T17:46:31.706Z,3.92
2023-04-10T17:49:01.885Z,7.35
2023-04-10T17:51:31.920Z,5.35
2023-04-10T17:54:01.672Z,4.63
2023-04-10T17:56:33.824Z,6.35
2023-04-10T17:59:03.347Z,6.93
2023-04-10T18:01:32.295Z,7.78
2023-04-10T18:04:03.402Z,6.82
2023-04-10T18:06:33.412Z,10.75
2023-04-10T18:09:02.001Z,5.80
2023-04-10T18:11:30.757Z,3.42
2023-04-10T18:14:00.580Z,10.20
2023-04-10T18:16:30.077Z,3.38
2023-04-10T18:18:59.921Z,10.40
2023-04-10T18:21:28.610Z,5.22
2023-04-10T18:23:57.200Z,9.98
2023-04-10T18:26:25.769Z,7.45
2023-04-10T18:28:54.702Z,9.05
2023-04-10T18:31:25.620Z,6.22
2023-04-10T18:34:04.132Z,5.60
2023-04-10T18:36:37.827Z,9.75
2023-04-10T18:39:06.585Z,8.05
2023-04-10T18:41:35.449Z,13.18
2023-04-10T18:44:05.776Z,9.02
2023-04-10T18:46:36.434Z,9.45
2023-04-10T18:49:05.068Z,7.25
2023-04-10T18:51:36.656Z,6.22
2023-04-10T18:54:09.641Z,11.25
2023-04-10T18:56:38.746Z,3.92
2023-04-10T18:59:07.365Z,5.68
2023-04-10T19:01:40.246Z,10.35
2023-04-10T19:04:10.075Z,5.00
2023-04-10T19:06:41.391Z,11.93
2023-04-10T19:09:10.202Z,6.80
2023-04-10T19:11:39.118Z,6.10
2023-04-10T19:14:07.853Z,5.72
2023-04-10T19:16:38.164Z,13.90
2023-04-10T19:19:06.964Z,8.15
2023-04-10T19:21:36.512Z,8.05
2023-04-10T19:24:05.336Z,12.68
2023-04-10T19:26:34.270Z,10.05
2023-04-10T19:29:02.844Z,11.85
2023-04-10T19:31:31.619Z,11.57
2023-04-10T19:34:04.191Z,12.98
2023-04-10T19:36:32.535Z,12.60
2023-04-10T19:39:01.136Z,13.70
2023-04-10T19:41:30.047Z,15.05
2023-04-10T19:43:59.055Z,12.90
2023-04-10T19:46:32.809Z,14.32
2023-04-10T19:49:04.354Z,13.52
2023-04-10T19:51:33.775Z,13.90
2023-04-10T19:54:03.478Z,15.20
2023-04-10T19:56:31.884Z,14.93
2023-04-10T19:59:00.830Z,9.82
2023-04-10T20:01:29.779Z,11.27
2023-04-10T20:03:58.505Z,9.70
2023-04-10T20:06:28.959Z,6.18
2023-04-10T20:08:58.164Z,9.93
2023-04-10T20:11:31.092Z,9.63
2023-04-10T20:13:59.664Z,6.65
2023-04-10T20:16:29.662Z,5.70
2023-04-10T20:18:58.488Z,9.75
2023-04-10T20:21:29.189Z,15.52
2023-04-10T20:23:59.491Z,8.07
2023-04-10T20:26:28.445Z,6.95
2023-04-10T20:28:57.681Z,8.75
2023-04-10T20:31:27.612Z,6.72
2023-04-10T20:33:57.856Z,5.57
2023-04-10T20:36:28.081Z,10.45
2023-04-10T20:38:56.974Z,3.30
2023-04-10T20:41:26.455Z,9.07
2023-04-10T20:43:56.237Z,13.05
2023-04-10T20:46:27.444Z,11.48
2023-04-10T20:48:58.555Z,8.15
2023-04-10T20:51:30.259Z,8.30
2023-04-10T20:53:59.100Z,7.65
2023-04-10T20:56:36.837Z,5.22
2023-04-10T20:59:11.780Z,6.35
2023-04-10T21:01:40.545Z,9.23
2023-04-10T21:04:11.544Z,9.65
2023-04-10T21:06:41.694Z,9.23
2023-04-10T21:09:11.317Z,9.38
2023-04-10T21:11:39.891Z,7.63
2023-04-10T21:14:08.617Z,7.13
2023-04-10T21:16:41.607Z,14.00
2023-04-10T21:19:10.430Z,8.40
2023-04-10T21:21:40.728Z,8.85
2023-04-10T21:24:09.181Z,7.15
2023-04-10T21:26:38.203Z,8.15
2023-04-10T21:29:06.938Z,6.82
2023-04-10T21:31:35.576Z,16.73
2023-04-10T21:34:04.154Z,12.60
2023-04-10T21:36:34.026Z,8.18
2023-04-10T21:39:04.052Z,11.00
2023-04-10T21:41:32.768Z,6.88
2023-04-10T21:44:01.190Z,11.20
2023-04-10T21:46:30.269Z,11.52
2023-04-10T21:49:00.211Z,13.65
2023-04-10T21:51:32.921Z,8.38
2023-04-10T21:54:01.474Z,8.27
2023-04-10T21:56:31.437Z,9.55
2023-04-10T21:59:02.850Z,9.40
2023-04-10T22:01:32.601Z,10.48
2023-04-10T22:04:01.286Z,6.80
2023-04-10T22:06:29.987Z,8.00
2023-04-10T22:08:58.499Z,7.78
2023-04-10T22:11:27.382Z,6.43
2023-04-10T22:14:02.765Z,3.72
2023-04-10T22:16:37.911Z,7.03
2023-04-10T22:19:06.401Z,7.60
2023-04-10T22:21:35.088Z,11.80
2023-04-10T22:24:05.857Z,9.15
2023-04-10T22:26:35.689Z,9.27
2023-04-10T22:29:06.339Z,9.45
2023-04-10T22:31:34.953Z,10.20
2023-04-10T22:34:05.789Z,10.82
2023-04-10T22:36:35.065Z,14.45
2023-04-10T22:39:03.940Z,13.50
2023-04-10T22:41:33.448Z,7.97
2023-04-10T22:44:02.025Z,6.75
2023-04-10T22:46:32.336Z,11.43
2023-04-10T22:49:00.882Z,12.10
2023-04-10T22:51:29.528Z,9.80
2023-04-10T22:53:58.378Z,6.00
2023-04-10T22:56:29.476Z,13.77
2023-04-10T22:58:58.104Z,8.98
2023-04-10T23:01:26.469Z,9.80
2023-04-10T23:03:56.604Z,11.05
2023-04-10T23:06:26.396Z,8.63
2023-04-10T23:08:55.098Z,10.60
2023-04-10T23:11:24.186Z,11.13
2023-04-10T23:13:54.065Z,11.88
2023-04-10T23:16:23.466Z,12.20
2023-04-10T23:18:52.344Z,12.52
2023-04-10T23:21:23.629Z,7.88
2023-04-10T23:23:51.986Z,8.60
2023-04-10T23:26:20.726Z,6.78
2023-04-10T23:28:49.694Z,9.95
2023-04-10T23:31:18.569Z,11.80
2023-04-10T23:33:47.501Z,14.80
2023-04-10T23:36:16.241Z,12.38
2023-04-10T23:38:46.367Z,12.25
2023-04-10T23:41:14.894Z,11.95
2023-04-10T23:43:43.203Z,7.18
2023-04-10T23:46:11.781Z,12.55
2023-04-10T23:48:40.418Z,10.52
2023-04-10T23:51:10.677Z,12.88
2023-04-10T23:53:39.079Z,12.95
2023-04-10T23:56:10.071Z,13.93
2023-04-10T23:58:38.570Z,13.70
